sensor_id;sensor_type;location;lat;lon;timestamp;P1;durP1;ratioP1;P2;durP2;ratioP2
85887;SDS011;76409;40.278;21.754;2024-02-14T00:10:38;5.10;;;3.30;;
85887;SDS011;76409;40.278;21.754;2024-02-14T00:11:09;4.10;;;3.00;;
85887;SDS011;76409;40.278;21.754;2024-02-14T00:11:41;4.90;;;3.80;;
85887;SDS011;76409;40.278;21.754;2024-02-14T00:12:13;5.40;;;3.20;;
85887;SDS011;76409;40.278;21.754;2024-02-14T00:12:45;4.50;;;3.00;;
85887;SDS011;76409;40.278;21.754;2024-02-14T00:13:17;4.60;;;2.70;;
85887;SDS011;76409;40.278;21.754;2024-02-14T00:13:49;3.90;;;2.50;;
85887;SDS011;76409;40.278;21.754;2024-02-14T00:14:20;4.60;;;3.20;;
85887;SDS011;76409;40.278;21.754;2024-02-14T00:14:52;4.10;;;2.90;;
85887;SDS011;76409;40.278;21.754;2024-02-14T00:15:24;5.70;;;3.20;;
85887;SDS011;76409;40.278;21.754;2024-02-14T00:15:56;4.90;;;3.00;;
85887;SDS011;76409;40.278;21.754;2024-02-14T00:16:28;5.70;;;3.00;;
85887;SDS011;76409;40.278;21.754;2024-02-14T00:17:31;4.70;;;2.90;;
85887;SDS011;76409;40.278;21.754;2024-02-14T00:18:35;3.50;;;2.60;;
85887;SDS011;76409;40.278;21.754;2024-02-14T00:19:07;4.40;;;2.70;;
85887;SDS011;76409;40.278;21.754;2024-02-14T00:19:39;4.00;;;2.40;;
85887;SDS011;76409;40.278;21.754;2024-02-14T00:20:11;4.30;;;2.80;;
85887;SDS011;76409;40.278;21.754;2024-02-14T00:20:43;4.70;;;2.90;;
85887;SDS011;76409;40.278;21.754;2024-02-14T00:21:15;3.70;;;2.60;;
85887;SDS011;76409;40.278;21.754;2024-02-14T00:21:46;3.90;;;2.70;;
85887;SDS011;76409;40.278;21.754;2024-02-14T00:22:18;4.40;;;3.00;;
85887;SDS011;76409;40.278;21.754;2024-02-14T00:22:50;3.90;;;2.60;;
85887;SDS011;76409;40.278;21.754;2024-02-14T00:23:22;4.40;;;2.40;;
85887;SDS011;76409;40.278;21.754;2024-02-14T00:23:54;4.40;;;2.90;;
85887;SDS011;76409;40.278;21.754;2024-02-14T00:24:26;4.40;;;2.70;;
85887;SDS011;76409;40.278;21.754;2024-02-14T00:24:57;3.70;;;2.50;;
85887;SDS011;76409;40.278;21.754;2024-02-14T00:25:29;5.70;;;2.90;;
85887;SDS011;76409;40.278;21.754;2024-02-14T00:26:01;3.30;;;2.60;;
85887;SDS011;76409;40.278;21.754;2024-02-14T00:26:33;4.40;;;3.00;;
85887;SDS011;76409;40.278;21.754;2024-02-14T00:27:05;3.60;;;2.70;;
85887;SDS011;76409;40.278;21.754;2024-02-14T00:27:37;4.50;;;3.00;;
85887;SDS011;76409;40.278;21.754;2024-02-14T00:28:09;3.40;;;2.30;;
85887;SDS011;76409;40.278;21.754;2024-02-14T00:28:40;4.30;;;2.70;;
85887;SDS011;76409;40.278;21.754;2024-02-14T00:29:12;3.40;;;2.60;;
85887;SDS011;76409;40.278;21.754;2024-02-14T00:29:44;3.40;;;2.40;;
85887;SDS011;76409;40.278;21.754;2024-02-14T00:30:16;4.10;;;3.10;;
85887;SDS011;76409;40.278;21.754;2024-02-14T00:30:48;3.60;;;2.70;;
85887;SDS011;76409;40.278;21.754;2024-02-14T00:31:19;3.50;;;2.50;;
85887;SDS011;76409;40.278;21.754;2024-02-14T00:31:51;4.80;;;3.00;;
85887;SDS011;76409;40.278;21.754;2024-02-14T00:32:23;4.80;;;2.90;;
85887;SDS011;76409;40.278;21.754;2024-02-14T00:32:55;3.80;;;2.70;;
85887;SDS011;76409;40.278;21.754;2024-02-14T00:33:27;3.50;;;2.40;;
85887;SDS011;76409;40.278;21.754;2024-02-14T00:33:58;4.00;;;2.80;;
85887;SDS011;76409;40.278;21.754;2024-02-14T00:34:30;3.20;;;2.70;;
85887;SDS011;76409;40.278;21.754;2024-02-14T00:35:02;4.00;;;2.30;;
85887;SDS011;76409;40.278;21.754;2024-02-14T00:35:34;5.50;;;2.50;;
85887;SDS011;76409;40.278;21.754;2024-02-14T00:36:06;4.90;;;2.50;;
85887;SDS011;76409;40.278;21.754;2024-02-14T00:36:38;3.80;;;2.80;;
85887;SDS011;76409;40.278;21.754;2024-02-14T00:37:10;4.00;;;2.70;;
85887;SDS011;76409;40.278;21.754;2024-02-14T00:37:42;3.40;;;2.70;;
85887;SDS011;76409;40.278;21.754;2024-02-14T00:38:13;4.30;;;2.60;;
85887;SDS011;76409;40.278;21.754;2024-02-14T00:38:45;3.90;;;2.50;;
85887;SDS011;76409;40.278;21.754;2024-02-14T00:39:17;4.70;;;2.60;;
85887;SDS011;76409;40.278;21.754;2024-02-14T00:39:49;5.60;;;2.60;;
85887;SDS011;76409;40.278;21.754;2024-02-14T00:40:21;3.80;;;2.60;;
85887;SDS011;76409;40.278;21.754;2024-02-14T00:40:53;3.90;;;2.60;;
85887;SDS011;76409;40.278;21.754;2024-02-14T00:41:24;3.70;;;2.60;;
85887;SDS011;76409;40.278;21.754;2024-02-14T00:41:56;4.40;;;3.20;;
85887;SDS011;76409;40.278;21.754;2024-02-14T00:42:28;4.60;;;3.20;;
85887;SDS011;76409;40.278;21.754;2024-02-14T00:43:00;4.80;;;2.60;;
85887;SDS011;76409;40.278;21.754;2024-02-14T00:43:32;3.90;;;2.70;;
85887;SDS011;76409;40.278;21.754;2024-02-14T00:44:04;4.20;;;2.40;;
85887;SDS011;76409;40.278;21.754;2024-02-14T00:44:36;4.30;;;2.40;;
85887;SDS011;76409;40.278;21.754;2024-02-14T00:45:08;4.80;;;2.10;;
85887;SDS011;76409;40.278;21.754;2024-02-14T00:45:40;3.90;;;2.20;;
85887;SDS011;76409;40.278;21.754;2024-02-14T00:46:15;4.70;;;2.80;;
85887;SDS011;76409;40.278;21.754;2024-02-14T00:46:48;7.20;;;2.60;;
85887;SDS011;76409;40.278;21.754;2024-02-14T00:47:19;5.40;;;2.80;;
85887;SDS011;76409;40.278;21.754;2024-02-14T00:47:51;4.20;;;2.40;;
85887;SDS011;76409;40.278;21.754;2024-02-14T00:48:56;7.50;;;2.60;;
85887;SDS011;76409;40.278;21.754;2024-02-14T00:49:28;3.70;;;2.40;;
85887;SDS011;76409;40.278;21.754;2024-02-14T00:50:31;2.90;;;2.10;;
85887;SDS011;76409;40.278;21.754;2024-02-14T00:51:03;4.70;;;2.80;;
85887;SDS011;76409;40.278;21.754;2024-02-14T00:51:36;5.90;;;2.20;;
85887;SDS011;76409;40.278;21.754;2024-02-14T00:52:08;4.00;;;2.60;;
85887;SDS011;76409;40.278;21.754;2024-02-14T00:52:40;5.10;;;3.00;;
85887;SDS011;76409;40.278;21.754;2024-02-14T00:53:11;4.40;;;2.60;;
85887;SDS011;76409;40.278;21.754;2024-02-14T00:53:43;4.30;;;2.40;;
85887;SDS011;76409;40.278;21.754;2024-02-14T00:54:15;4.70;;;2.50;;
85887;SDS011;76409;40.278;21.754;2024-02-14T00:54:47;4.40;;;2.80;;
85887;SDS011;76409;40.278;21.754;2024-02-14T00:55:19;5.50;;;3.80;;
85887;SDS011;76409;40.278;21.754;2024-02-14T00:55:50;4.50;;;3.60;;
85887;SDS011;76409;40.278;21.754;2024-02-14T00:56:22;5.50;;;3.20;;
85887;SDS011;76409;40.278;21.754;2024-02-14T00:56:55;4.30;;;3.00;;
85887;SDS011;76409;40.278;21.754;2024-02-14T00:57:26;4.20;;;2.80;;
85887;SDS011;76409;40.278;21.754;2024-02-14T00:57:58;4.40;;;2.80;;
85887;SDS011;76409;40.278;21.754;2024-02-14T00:58:30;5.60;;;3.10;;
85887;SDS011;76409;40.278;21.754;2024-02-14T00:59:02;3.90;;;3.20;;
85887;SDS011;76409;40.278;21.754;2024-02-14T00:59:34;5.10;;;2.70;;
85887;SDS011;76409;40.278;21.754;2024-02-14T01:00:06;3.80;;;2.50;;
85887;SDS011;76409;40.278;21.754;2024-02-14T01:00:38;3.80;;;2.70;;
85887;SDS011;76409;40.278;21.754;2024-02-14T01:01:42;3.40;;;2.60;;
85887;SDS011;76409;40.278;21.754;2024-02-14T01:02:14;3.60;;;2.60;;
85887;SDS011;76409;40.278;21.754;2024-02-14T01:02:47;6.20;;;2.40;;
85887;SDS011;76409;40.278;21.754;2024-02-14T01:03:19;4.40;;;2.50;;
85887;SDS011;76409;40.278;21.754;2024-02-14T01:03:50;6.60;;;2.70;;
85887;SDS011;76409;40.278;21.754;2024-02-14T01:04:22;4.30;;;2.80;;
85887;SDS011;76409;40.278;21.754;2024-02-14T01:04:54;4.50;;;2.70;;
85887;SDS011;76409;40.278;21.754;2024-02-14T01:05:26;5.30;;;3.20;;
85887;SDS011;76409;40.278;21.754;2024-02-14T01:05:58;4.60;;;2.80;;
85887;SDS011;76409;40.278;21.754;2024-02-14T01:06:32;4.90;;;2.80;;
85887;SDS011;76409;40.278;21.754;2024-02-14T01:07:04;3.80;;;2.40;;
85887;SDS011;76409;40.278;21.754;2024-02-14T01:07:36;5.30;;;2.70;;
85887;SDS011;76409;40.278;21.754;2024-02-14T01:08:08;4.20;;;2.80;;
85887;SDS011;76409;40.278;21.754;2024-02-14T01:08:40;5.40;;;2.80;;
85887;SDS011;76409;40.278;21.754;2024-02-14T01:09:12;3.60;;;2.40;;
85887;SDS011;76409;40.278;21.754;2024-02-14T01:09:44;4.60;;;3.00;;
85887;SDS011;76409;40.278;21.754;2024-02-14T01:10:16;4.20;;;2.50;;
85887;SDS011;76409;40.278;21.754;2024-02-14T01:10:48;3.90;;;2.60;;
85887;SDS011;76409;40.278;21.754;2024-02-14T01:11:20;3.30;;;2.40;;
85887;SDS011;76409;40.278;21.754;2024-02-14T01:11:52;3.90;;;2.10;;
85887;SDS011;76409;40.278;21.754;2024-02-14T01:12:24;6.30;;;2.80;;
85887;SDS011;76409;40.278;21.754;2024-02-14T01:12:56;2.90;;;2.50;;
85887;SDS011;76409;40.278;21.754;2024-02-14T01:13:28;4.80;;;2.50;;
85887;SDS011;76409;40.278;21.754;2024-02-14T01:14:00;5.20;;;1.90;;
85887;SDS011;76409;40.278;21.754;2024-02-14T01:14:32;4.70;;;2.50;;
85887;SDS011;76409;40.278;21.754;2024-02-14T01:15:04;5.30;;;2.50;;
85887;SDS011;76409;40.278;21.754;2024-02-14T01:15:36;4.10;;;2.40;;
85887;SDS011;76409;40.278;21.754;2024-02-14T01:16:08;4.80;;;2.80;;
85887;SDS011;76409;40.278;21.754;2024-02-14T01:16:43;4.90;;;2.60;;
85887;SDS011;76409;40.278;21.754;2024-02-14T01:17:17;5.50;;;2.80;;
85887;SDS011;76409;40.278;21.754;2024-02-14T01:17:49;3.90;;;2.20;;
85887;SDS011;76409;40.278;21.754;2024-02-14T01:18:21;4.80;;;2.40;;
85887;SDS011;76409;40.278;21.754;2024-02-14T01:18:53;4.40;;;2.30;;
85887;SDS011;76409;40.278;21.754;2024-02-14T01:19:25;5.80;;;2.70;;
85887;SDS011;76409;40.278;21.754;2024-02-14T01:19:57;5.00;;;2.80;;
85887;SDS011;76409;40.278;21.754;2024-02-14T01:20:28;4.60;;;2.20;;
85887;SDS011;76409;40.278;21.754;2024-02-14T01:21:01;5.30;;;2.30;;
85887;SDS011;76409;40.278;21.754;2024-02-14T01:21:33;4.00;;;2.40;;
85887;SDS011;76409;40.278;21.754;2024-02-14T01:22:05;5.30;;;2.60;;
85887;SDS011;76409;40.278;21.754;2024-02-14T01:22:37;5.50;;;2.50;;
85887;SDS011;76409;40.278;21.754;2024-02-14T01:23:08;3.90;;;2.20;;
85887;SDS011;76409;40.278;21.754;2024-02-14T01:23:40;4.10;;;2.30;;
85887;SDS011;76409;40.278;21.754;2024-02-14T01:24:12;5.00;;;2.20;;
85887;SDS011;76409;40.278;21.754;2024-02-14T01:24:44;5.20;;;2.50;;
85887;SDS011;76409;40.278;21.754;2024-02-14T01:25:16;4.20;;;2.40;;
85887;SDS011;76409;40.278;21.754;2024-02-14T01:25:48;3.20;;;2.00;;
85887;SDS011;76409;40.278;21.754;2024-02-14T01:26:20;6.70;;;2.30;;
85887;SDS011;76409;40.278;21.754;2024-02-14T01:26:53;4.80;;;2.40;;
85887;SDS011;76409;40.278;21.754;2024-02-14T01:27:25;6.30;;;2.40;;
85887;SDS011;76409;40.278;21.754;2024-02-14T01:27:57;4.60;;;2.40;;
85887;SDS011;76409;40.278;21.754;2024-02-14T01:28:29;7.40;;;2.30;;
85887;SDS011;76409;40.278;21.754;2024-02-14T01:29:01;3.60;;;2.50;;
85887;SDS011;76409;40.278;21.754;2024-02-14T01:29:34;4.70;;;2.40;;
85887;SDS011;76409;40.278;21.754;2024-02-14T01:30:37;4.10;;;2.10;;
85887;SDS011;76409;40.278;21.754;2024-02-14T01:31:09;3.50;;;2.50;;
85887;SDS011;76409;40.278;21.754;2024-02-14T01:31:41;4.80;;;2.40;;
85887;SDS011;76409;40.278;21.754;2024-02-14T01:32:13;3.60;;;2.30;;
85887;SDS011;76409;40.278;21.754;2024-02-14T01:32:45;6.30;;;2.40;;
85887;SDS011;76409;40.278;21.754;2024-02-14T01:33:17;3.90;;;2.50;;
85887;SDS011;76409;40.278;21.754;2024-02-14T01:33:49;3.80;;;2.30;;
85887;SDS011;76409;40.278;21.754;2024-02-14T01:34:21;4.80;;;2.10;;
85887;SDS011;76409;40.278;21.754;2024-02-14T01:34:53;3.10;;;2.00;;
85887;SDS011;76409;40.278;21.754;2024-02-14T01:35:25;4.40;;;2.20;;
85887;SDS011;76409;40.278;21.754;2024-02-14T01:35:57;3.30;;;2.50;;
85887;SDS011;76409;40.278;21.754;2024-02-14T01:36:30;4.50;;;2.60;;
85887;SDS011;76409;40.278;21.754;2024-02-14T01:37:02;3.30;;;2.40;;
85887;SDS011;76409;40.278;21.754;2024-02-14T01:37:38;4.40;;;2.20;;
85887;SDS011;76409;40.278;21.754;2024-02-14T01:38:10;3.80;;;2.40;;
85887;SDS011;76409;40.278;21.754;2024-02-14T01:38:42;4.20;;;2.40;;
85887;SDS011;76409;40.278;21.754;2024-02-14T01:39:14;3.90;;;2.30;;
85887;SDS011;76409;40.278;21.754;2024-02-14T01:39:45;3.70;;;2.40;;
85887;SDS011;76409;40.278;21.754;2024-02-14T01:40:17;4.30;;;2.30;;
85887;SDS011;76409;40.278;21.754;2024-02-14T01:40:49;3.60;;;2.10;;
85887;SDS011;76409;40.278;21.754;2024-02-14T01:41:21;3.50;;;2.40;;
85887;SDS011;76409;40.278;21.754;2024-02-14T01:41:53;3.60;;;2.30;;
85887;SDS011;76409;40.278;21.754;2024-02-14T01:42:25;4.50;;;2.40;;
85887;SDS011;76409;40.278;21.754;2024-02-14T01:42:57;3.60;;;2.50;;
85887;SDS011;76409;40.278;21.754;2024-02-14T01:43:29;4.40;;;2.70;;
85887;SDS011;76409;40.278;21.754;2024-02-14T01:44:01;5.00;;;2.00;;
85887;SDS011;76409;40.278;21.754;2024-02-14T01:44:33;4.80;;;2.40;;
85887;SDS011;76409;40.278;21.754;2024-02-14T01:45:05;3.80;;;2.20;;
85887;SDS011;76409;40.278;21.754;2024-02-14T01:45:37;3.80;;;2.20;;
85887;SDS011;76409;40.278;21.754;2024-02-14T01:46:09;4.70;;;2.40;;
85887;SDS011;76409;40.278;21.754;2024-02-14T01:46:42;4.90;;;2.40;;
85887;SDS011;76409;40.278;21.754;2024-02-14T01:47:14;4.10;;;2.20;;
85887;SDS011;76409;40.278;21.754;2024-02-14T01:47:46;4.00;;;2.50;;
85887;SDS011;76409;40.278;21.754;2024-02-14T01:48:19;2.80;;;2.10;;
85887;SDS011;76409;40.278;21.754;2024-02-14T01:48:51;3.50;;;2.90;;
85887;SDS011;76409;40.278;21.754;2024-02-14T01:49:23;5.00;;;2.50;;
85887;SDS011;76409;40.278;21.754;2024-02-14T01:49:55;4.00;;;2.10;;
85887;SDS011;76409;40.278;21.754;2024-02-14T01:50:27;4.20;;;2.50;;
85887;SDS011;76409;40.278;21.754;2024-02-14T01:51:00;4.20;;;2.20;;
85887;SDS011;76409;40.278;21.754;2024-02-14T01:51:33;4.00;;;2.00;;
85887;SDS011;76409;40.278;21.754;2024-02-14T01:52:07;4.10;;;1.90;;
85887;SDS011;76409;40.278;21.754;2024-02-14T01:52:39;3.20;;;2.00;;
85887;SDS011;76409;40.278;21.754;2024-02-14T01:53:12;4.90;;;2.30;;
85887;SDS011;76409;40.278;21.754;2024-02-14T01:53:46;4.50;;;2.40;;
85887;SDS011;76409;40.278;21.754;2024-02-14T01:54:19;4.70;;;2.50;;
85887;SDS011;76409;40.278;21.754;2024-02-14T01:54:51;5.30;;;2.10;;
85887;SDS011;76409;40.278;21.754;2024-02-14T01:55:23;3.80;;;1.70;;
85887;SDS011;76409;40.278;21.754;2024-02-14T01:55:56;3.20;;;2.20;;
85887;SDS011;76409;40.278;21.754;2024-02-14T01:56:31;3.40;;;1.90;;
85887;SDS011;76409;40.278;21.754;2024-02-14T01:57:03;5.20;;;2.40;;
85887;SDS011;76409;40.278;21.754;2024-02-14T01:57:37;3.30;;;1.90;;
85887;SDS011;76409;40.278;21.754;2024-02-14T01:58:10;6.70;;;2.20;;
85887;SDS011;76409;40.278;21.754;2024-02-14T01:58:42;6.10;;;2.30;;
85887;SDS011;76409;40.278;21.754;2024-02-14T01:59:15;6.60;;;2.70;;
85887;SDS011;76409;40.278;21.754;2024-02-14T01:59:47;5.80;;;2.00;;
85887;SDS011;76409;40.278;21.754;2024-02-14T02:00:21;8.40;;;2.40;;
85887;SDS011;76409;40.278;21.754;2024-02-14T02:00:53;6.60;;;2.40;;
85887;SDS011;76409;40.278;21.754;2024-02-14T02:01:25;4.70;;;2.70;;
85887;SDS011;76409;40.278;21.754;2024-02-14T02:01:57;2.60;;;2.00;;
85887;SDS011;76409;40.278;21.754;2024-02-14T02:02:29;4.60;;;2.50;;
85887;SDS011;76409;40.278;21.754;2024-02-14T02:03:01;7.40;;;2.90;;
85887;SDS011;76409;40.278;21.754;2024-02-14T02:03:33;6.60;;;2.70;;
85887;SDS011;76409;40.278;21.754;2024-02-14T02:04:04;9.60;;;2.10;;
85887;SDS011;76409;40.278;21.754;2024-02-14T02:04:37;3.70;;;2.60;;
85887;SDS011;76409;40.278;21.754;2024-02-14T02:05:08;5.10;;;2.30;;
85887;SDS011;76409;40.278;21.754;2024-02-14T02:05:41;4.10;;;2.20;;
85887;SDS011;76409;40.278;21.754;2024-02-14T02:06:13;4.30;;;2.00;;
85887;SDS011;76409;40.278;21.754;2024-02-14T02:06:45;4.80;;;2.30;;
85887;SDS011;76409;40.278;21.754;2024-02-14T02:07:17;3.10;;;2.20;;
85887;SDS011;76409;40.278;21.754;2024-02-14T02:07:49;3.30;;;2.20;;
85887;SDS011;76409;40.278;21.754;2024-02-14T02:08:21;3.10;;;2.20;;
85887;SDS011;76409;40.278;21.754;2024-02-14T02:08:53;3.10;;;2.40;;
85887;SDS011;76409;40.278;21.754;2024-02-14T02:09:25;4.30;;;2.70;;
85887;SDS011;76409;40.278;21.754;2024-02-14T02:09:57;6.10;;;2.50;;
85887;SDS011;76409;40.278;21.754;2024-02-14T02:10:29;5.00;;;2.00;;
85887;SDS011;76409;40.278;21.754;2024-02-14T02:11:01;4.10;;;2.10;;
85887;SDS011;76409;40.278;21.754;2024-02-14T02:11:45;4.40;;;2.10;;
85887;SDS011;76409;40.278;21.754;2024-02-14T02:12:18;2.70;;;2.00;;
85887;SDS011;76409;40.278;21.754;2024-02-14T02:12:50;5.90;;;2.30;;
85887;SDS011;76409;40.278;21.754;2024-02-14T02:13:22;5.00;;;2.10;;
85887;SDS011;76409;40.278;21.754;2024-02-14T02:13:54;3.20;;;1.90;;
85887;SDS011;76409;40.278;21.754;2024-02-14T02:14:26;4.80;;;2.10;;
85887;SDS011;76409;40.278;21.754;2024-02-14T02:14:58;5.30;;;2.30;;
85887;SDS011;76409;40.278;21.754;2024-02-14T02:15:30;6.10;;;2.40;;
85887;SDS011;76409;40.278;21.754;2024-02-14T02:16:02;3.90;;;2.10;;
85887;SDS011;76409;40.278;21.754;2024-02-14T02:16:34;3.60;;;2.30;;
85887;SDS011;76409;40.278;21.754;2024-02-14T02:17:07;3.40;;;2.00;;
85887;SDS011;76409;40.278;21.754;2024-02-14T02:17:39;5.20;;;2.10;;
85887;SDS011;76409;40.278;21.754;2024-02-14T02:18:11;6.00;;;2.40;;
85887;SDS011;76409;40.278;21.754;2024-02-14T02:18:43;7.50;;;2.40;;
85887;SDS011;76409;40.278;21.754;2024-02-14T02:19:15;4.30;;;2.00;;
85887;SDS011;76409;40.278;21.754;2024-02-14T02:19:47;3.50;;;1.90;;
85887;SDS011;76409;40.278;21.754;2024-02-14T02:20:19;5.20;;;2.30;;
85887;SDS011;76409;40.278;21.754;2024-02-14T02:20:50;6.70;;;2.50;;
85887;SDS011;76409;40.278;21.754;2024-02-14T02:21:22;3.50;;;2.10;;
85887;SDS011;76409;40.278;21.754;2024-02-14T02:21:54;3.30;;;2.40;;
85887;SDS011;76409;40.278;21.754;2024-02-14T02:22:26;4.80;;;2.10;;
85887;SDS011;76409;40.278;21.754;2024-02-14T02:22:58;4.00;;;2.10;;
85887;SDS011;76409;40.278;21.754;2024-02-14T02:23:30;4.80;;;2.30;;
85887;SDS011;76409;40.278;21.754;2024-02-14T02:24:02;3.40;;;2.40;;
85887;SDS011;76409;40.278;21.754;2024-02-14T02:24:34;4.30;;;2.40;;
85887;SDS011;76409;40.278;21.754;2024-02-14T02:25:06;5.40;;;1.70;;
85887;SDS011;76409;40.278;21.754;2024-02-14T02:25:39;4.40;;;1.90;;
85887;SDS011;76409;40.278;21.754;2024-02-14T02:26:11;4.10;;;2.10;;
85887;SDS011;76409;40.278;21.754;2024-02-14T02:26:42;5.60;;;1.70;;
85887;SDS011;76409;40.278;21.754;2024-02-14T02:27:14;3.20;;;2.30;;
85887;SDS011;76409;40.278;21.754;2024-02-14T02:27:46;4.80;;;3.00;;
85887;SDS011;76409;40.278;21.754;2024-02-14T02:28:18;2.80;;;2.50;;
85887;SDS011;76409;40.278;21.754;2024-02-14T02:28:50;4.10;;;2.20;;
85887;SDS011;76409;40.278;21.754;2024-02-14T02:29:22;2.90;;;2.10;;
85887;SDS011;76409;40.278;21.754;2024-02-14T02:29:54;3.20;;;1.70;;
85887;SDS011;76409;40.278;21.754;2024-02-14T02:30:26;3.10;;;2.20;;
85887;SDS011;76409;40.278;21.754;2024-02-14T02:30:58;3.50;;;2.00;;
85887;SDS011;76409;40.278;21.754;2024-02-14T02:31:30;3.80;;;2.30;;
85887;SDS011;76409;40.278;21.754;2024-02-14T02:32:02;2.60;;;2.10;;
85887;SDS011;76409;40.278;21.754;2024-02-14T02:32:34;3.50;;;1.70;;
85887;SDS011;76409;40.278;21.754;2024-02-14T02:33:07;3.20;;;2.30;;
85887;SDS011;76409;40.278;21.754;2024-02-14T02:33:39;3.70;;;2.10;;
85887;SDS011;76409;40.278;21.754;2024-02-14T02:34:11;3.60;;;1.70;;
85887;SDS011;76409;40.278;21.754;2024-02-14T02:34:43;3.10;;;2.20;;
85887;SDS011;76409;40.278;21.754;2024-02-14T02:35:15;5.30;;;2.50;;
85887;SDS011;76409;40.278;21.754;2024-02-14T02:35:47;2.40;;;1.80;;
85887;SDS011;76409;40.278;21.754;2024-02-14T02:36:19;5.00;;;2.50;;
85887;SDS011;76409;40.278;21.754;2024-02-14T02:36:51;3.10;;;2.10;;
85887;SDS011;76409;40.278;21.754;2024-02-14T02:37:23;2.80;;;2.20;;
85887;SDS011;76409;40.278;21.754;2024-02-14T02:37:56;3.30;;;2.00;;
85887;SDS011;76409;40.278;21.754;2024-02-14T02:39:00;4.70;;;2.20;;
85887;SDS011;76409;40.278;21.754;2024-02-14T02:39:32;3.80;;;1.90;;
85887;SDS011;76409;40.278;21.754;2024-02-14T02:40:36;2.90;;;1.80;;
85887;SDS011;76409;40.278;21.754;2024-02-14T02:41:08;3.70;;;2.10;;
85887;SDS011;76409;40.278;21.754;2024-02-14T02:41:40;2.70;;;1.90;;
85887;SDS011;76409;40.278;21.754;2024-02-14T02:42:11;3.90;;;1.90;;
85887;SDS011;76409;40.278;21.754;2024-02-14T02:42:43;4.40;;;2.10;;
85887;SDS011;76409;40.278;21.754;2024-02-14T02:43:15;3.20;;;2.20;;
85887;SDS011;76409;40.278;21.754;2024-02-14T02:43:47;3.60;;;2.00;;
85887;SDS011;76409;40.278;21.754;2024-02-14T02:44:19;3.10;;;2.00;;
85887;SDS011;76409;40.278;21.754;2024-02-14T02:44:51;3.30;;;2.60;;
85887;SDS011;76409;40.278;21.754;2024-02-14T02:45:22;3.50;;;1.90;;
85887;SDS011;76409;40.278;21.754;2024-02-14T02:45:54;3.30;;;2.10;;
85887;SDS011;76409;40.278;21.754;2024-02-14T02:46:26;3.40;;;2.00;;
85887;SDS011;76409;40.278;21.754;2024-02-14T02:46:58;3.40;;;2.00;;
85887;SDS011;76409;40.278;21.754;2024-02-14T02:47:30;3.20;;;2.30;;
85887;SDS011;76409;40.278;21.754;2024-02-14T02:48:01;3.20;;;2.00;;
85887;SDS011;76409;40.278;21.754;2024-02-14T02:48:33;3.80;;;2.30;;
85887;SDS011;76409;40.278;21.754;2024-02-14T02:49:05;3.10;;;2.10;;
85887;SDS011;76409;40.278;21.754;2024-02-14T02:49:38;4.70;;;1.90;;
85887;SDS011;76409;40.278;21.754;2024-02-14T02:50:10;4.10;;;2.10;;
85887;SDS011;76409;40.278;21.754;2024-02-14T02:50:42;3.80;;;2.20;;
85887;SDS011;76409;40.278;21.754;2024-02-14T02:51:17;3.40;;;2.10;;
85887;SDS011;76409;40.278;21.754;2024-02-14T02:51:50;2.60;;;1.70;;
85887;SDS011;76409;40.278;21.754;2024-02-14T02:52:22;3.90;;;1.80;;
85887;SDS011;76409;40.278;21.754;2024-02-14T02:52:54;2.90;;;1.90;;
85887;SDS011;76409;40.278;21.754;2024-02-14T02:53:26;2.70;;;2.00;;
85887;SDS011;76409;40.278;21.754;2024-02-14T02:53:58;3.30;;;2.00;;
85887;SDS011;76409;40.278;21.754;2024-02-14T02:54:30;2.70;;;1.80;;
85887;SDS011;76409;40.278;21.754;2024-02-14T02:55:01;3.30;;;2.30;;
85887;SDS011;76409;40.278;21.754;2024-02-14T02:55:33;3.30;;;2.30;;
85887;SDS011;76409;40.278;21.754;2024-02-14T02:56:05;3.20;;;2.00;;
85887;SDS011;76409;40.278;21.754;2024-02-14T02:56:37;3.00;;;1.70;;
85887;SDS011;76409;40.278;21.754;2024-02-14T02:57:42;2.70;;;1.80;;
85887;SDS011;76409;40.278;21.754;2024-02-14T02:58:46;3.30;;;1.60;;
85887;SDS011;76409;40.278;21.754;2024-02-14T02:59:18;3.60;;;2.10;;
85887;SDS011;76409;40.278;21.754;2024-02-14T02:59:50;3.40;;;1.80;;
85887;SDS011;76409;40.278;21.754;2024-02-14T03:00:22;3.10;;;2.00;;
85887;SDS011;76409;40.278;21.754;2024-02-14T03:00:54;2.90;;;1.70;;
85887;SDS011;76409;40.278;21.754;2024-02-14T03:01:58;3.10;;;2.30;;
85887;SDS011;76409;40.278;21.754;2024-02-14T03:02:30;2.70;;;1.70;;
85887;SDS011;76409;40.278;21.754;2024-02-14T03:03:02;3.00;;;2.20;;
85887;SDS011;76409;40.278;21.754;2024-02-14T03:03:35;4.40;;;1.80;;
85887;SDS011;76409;40.278;21.754;2024-02-14T03:04:07;2.50;;;1.80;;
85887;SDS011;76409;40.278;21.754;2024-02-14T03:04:39;2.40;;;1.80;;
85887;SDS011;76409;40.278;21.754;2024-02-14T03:05:11;4.00;;;1.90;;
85887;SDS011;76409;40.278;21.754;2024-02-14T03:05:43;2.60;;;2.10;;
85887;SDS011;76409;40.278;21.754;2024-02-14T03:06:15;2.80;;;2.10;;
85887;SDS011;76409;40.278;21.754;2024-02-14T03:06:47;2.60;;;2.10;;
85887;SDS011;76409;40.278;21.754;2024-02-14T03:07:19;3.60;;;2.00;;
85887;SDS011;76409;40.278;21.754;2024-02-14T03:07:51;2.80;;;1.70;;
85887;SDS011;76409;40.278;21.754;2024-02-14T03:08:23;3.30;;;1.80;;
85887;SDS011;76409;40.278;21.754;2024-02-14T03:09:28;3.00;;;1.90;;
85887;SDS011;76409;40.278;21.754;2024-02-14T03:09:59;3.30;;;2.20;;
85887;SDS011;76409;40.278;21.754;2024-02-14T03:10:32;2.40;;;1.80;;
85887;SDS011;76409;40.278;21.754;2024-02-14T03:11:04;3.20;;;1.80;;
85887;SDS011;76409;40.278;21.754;2024-02-14T03:11:36;2.90;;;1.60;;
85887;SDS011;76409;40.278;21.754;2024-02-14T03:12:09;5.30;;;1.90;;
85887;SDS011;76409;40.278;21.754;2024-02-14T03:12:41;3.20;;;2.00;;
85887;SDS011;76409;40.278;21.754;2024-02-14T03:13:46;4.30;;;1.90;;
85887;SDS011;76409;40.278;21.754;2024-02-14T03:14:19;2.80;;;1.70;;
85887;SDS011;76409;40.278;21.754;2024-02-14T03:14:50;2.60;;;1.90;;
85887;SDS011;76409;40.278;21.754;2024-02-14T03:15:22;2.90;;;1.70;;
85887;SDS011;76409;40.278;21.754;2024-02-14T03:15:54;4.90;;;2.30;;
85887;SDS011;76409;40.278;21.754;2024-02-14T03:16:26;3.70;;;1.70;;
85887;SDS011;76409;40.278;21.754;2024-02-14T03:16:59;1.90;;;1.50;;
85887;SDS011;76409;40.278;21.754;2024-02-14T03:17:31;2.10;;;1.40;;
85887;SDS011;76409;40.278;21.754;2024-02-14T03:18:03;4.20;;;1.60;;
85887;SDS011;76409;40.278;21.754;2024-02-14T03:19:07;4.20;;;1.80;;
85887;SDS011;76409;40.278;21.754;2024-02-14T03:19:39;7.90;;;2.00;;
85887;SDS011;76409;40.278;21.754;2024-02-14T03:20:11;3.50;;;1.60;;
85887;SDS011;76409;40.278;21.754;2024-02-14T03:20:44;3.40;;;1.70;;
85887;SDS011;76409;40.278;21.754;2024-02-14T03:21:16;2.40;;;1.80;;
85887;SDS011;76409;40.278;21.754;2024-02-14T03:21:48;2.80;;;1.80;;
85887;SDS011;76409;40.278;21.754;2024-02-14T03:22:19;3.90;;;1.80;;
85887;SDS011;76409;40.278;21.754;2024-02-14T03:22:51;2.40;;;1.50;;
85887;SDS011;76409;40.278;21.754;2024-02-14T03:23:23;3.30;;;1.80;;
85887;SDS011;76409;40.278;21.754;2024-02-14T03:23:55;2.50;;;1.60;;
85887;SDS011;76409;40.278;21.754;2024-02-14T03:24:27;3.00;;;1.70;;
85887;SDS011;76409;40.278;21.754;2024-02-14T03:24:58;3.10;;;2.20;;
85887;SDS011;76409;40.278;21.754;2024-02-14T03:25:30;2.70;;;2.00;;
85887;SDS011;76409;40.278;21.754;2024-02-14T03:26:02;3.00;;;1.80;;
85887;SDS011;76409;40.278;21.754;2024-02-14T03:26:34;3.80;;;1.70;;
85887;SDS011;76409;40.278;21.754;2024-02-14T03:27:06;2.40;;;1.50;;
85887;SDS011;76409;40.278;21.754;2024-02-14T03:27:38;3.20;;;1.50;;
85887;SDS011;76409;40.278;21.754;2024-02-14T03:28:10;4.00;;;2.10;;